Time;durP1;ratioP1;P1;durP2;ratioP2;P2;SDS_P1;SDS_P2;PMS_P1;PMS_P2;Temp;Humidity;BMP_temperature;BMP_pressure;BME280_temperature;BME280_humidity;BME280_pressure;Samples;Min_cycle;Max_cycle;Signal;HPM_P1;HPM_P2
2023/06/11 00:01:57;;;;;;;7.13;5.93;;;18.50;99.90;;;;;;5006017;28;20034;-68
2023/06/11 00:04:27;;;;;;;6.40;5.50;;;18.60;99.90;;;;;;5007377;28;20097;-68
2023/06/11 00:06:56;;;;;;;7.13;6.22;;;18.60;99.90;;;;;;5004548;28;20045;-68
2023/06/11 00:09:25;;;;;;;6.43;5.80;;;18.60;99.90;;;;;;5010654;28;20615;-68
2023/06/11 00:11:53;;;;;;;6.75;6.15;;;18.60;99.90;;;;;;5006320;28;20041;-68
2023/06/11 00:14:19;;;;;;;6.63;5.93;;;18.60;99.90;;;;;;4981261;28;20040;-68
2023/06/11 00:16:45;;;;;;;8.55;5.93;;;18.60;99.90;;;;;;5005044;28;20431;-68
2023/06/11 00:19:11;;;;;;;7.20;5.38;;;18.50;99.90;;;;;;5011273;28;20714;-68
2023/06/11 00:21:43;;;;;;;6.25;5.75;;;18.50;99.90;;;;;;5007746;28;20108;-68
2023/06/11 00:24:14;;;;;;;8.05;6.22;;;18.50;99.90;;;;;;5010671;28;20045;-67
2023/06/11 00:26:42;;;;;;;6.15;5.32;;;18.40;99.90;;;;;;5010201;28;20036;-68
2023/06/11 00:29:09;;;;;;;6.03;5.35;;;18.40;99.90;;;;;;5003307;28;20046;-68
2023/06/11 00:31:35;;;;;;;5.72;5.22;;;18.40;99.90;;;;;;4995651;28;20041;-68
2023/06/11 00:34:01;;;;;;;5.50;5.03;;;18.40;99.90;;;;;;4984464;28;20042;-68
2023/06/11 00:36:27;;;;;;;6.80;6.20;;;18.40;99.90;;;;;;5005410;28;20103;-65
2023/06/11 00:38:55;;;;;;;5.28;4.88;;;18.40;99.90;;;;;;5008554;28;20033;-65
2023/06/11 00:41:21;;;;;;;6.07;5.13;;;18.40;99.90;;;;;;5004781;28;20037;-65
2023/06/11 00:43:52;;;;;;;5.38;4.80;;;18.40;99.90;;;;;;5013690;28;20588;-65
2023/06/11 00:46:18;;;;;;;6.95;5.20;;;18.40;99.90;;;;;;5006829;28;20058;-65
2023/06/11 00:48:44;;;;;;;7.13;5.45;;;18.30;99.90;;;;;;5012338;28;20053;-65
2023/06/11 00:51:11;;;;;;;9.43;4.75;;;18.30;99.90;;;;;;5006590;28;20095;-65
2023/06/11 00:53:37;;;;;;;5.50;5.00;;;18.30;99.90;;;;;;5009975;28;21570;-68
2023/06/11 00:56:03;;;;;;;6.20;5.13;;;18.30;99.90;;;;;;5009843;28;21319;-68
2023/06/11 00:58:29;;;;;;;5.55;5.05;;;18.30;99.90;;;;;;5016721;28;20049;-68
2023/06/11 01:00:57;;;;;;;6.20;4.35;;;18.20;99.90;;;;;;5009278;28;20390;-68
2023/06/11 01:03:27;;;;;;;6.07;5.05;;;18.20;99.90;;;;;;5011120;28;20073;-67
2023/06/11 01:06:17;;;;;;;6.38;5.20;;;18.20;99.90;;;;;;5000469;28;20044;-69
2023/06/11 01:08:44;;;;;;;4.60;4.13;;;18.20;99.90;;;;;;5018177;28;20041;-69
2023/06/11 01:11:21;;;;;;;5.40;4.90;;;18.20;99.90;;;;;;5013579;28;20045;-69
2023/06/11 01:13:47;;;;;;;5.50;4.80;;;18.10;99.90;;;;;;5016830;28;20073;-69
2023/06/11 01:16:19;;;;;;;5.35;4.85;;;18.10;99.90;;;;;;5019504;28;20525;-70
2023/06/11 01:19:11;;;;;;;5.60;4.88;;;18.10;99.90;;;;;;5016569;28;20025;-69
2023/06/11 01:21:41;;;;;;;5.15;4.65;;;18.10;99.90;;;;;;4976682;28;20041;-70
2023/06/11 01:24:21;;;;;;;6.63;4.55;;;18.10;99.90;;;;;;5009439;28;20042;-69
2023/06/11 01:27:06;;;;;;;5.30;4.38;;;18.00;99.90;;;;;;5007829;28;20057;-70
2023/06/11 01:29:35;;;;;;;6.03;4.93;;;18.00;99.90;;;;;;5001469;28;20204;-69
2023/06/11 01:32:04;;;;;;;5.45;4.40;;;18.00;99.90;;;;;;4999628;28;20037;-69
2023/06/11 01:34:31;;;;;;;4.93;4.53;;;18.00;99.90;;;;;;5016361;28;20371;-70
2023/06/11 01:36:57;;;;;;;6.47;5.10;;;18.00;99.90;;;;;;5013666;28;20042;-70
2023/06/11 01:39:23;;;;;;;6.22;4.43;;;18.00;99.90;;;;;;5008156;28;20060;-69
2023/06/11 01:41:49;;;;;;;5.78;5.15;;;18.00;99.90;;;;;;5014661;28;20482;-69
2023/06/11 01:44:16;;;;;;;5.25;4.85;;;18.00;99.90;;;;;;4999611;28;20040;-69
2023/06/11 01:46:42;;;;;;;4.97;4.57;;;17.90;99.90;;;;;;5013422;28;20535;-69
2023/06/11 01:49:08;;;;;;;5.85;5.07;;;18.00;99.90;;;;;;5011601;28;21831;-69
2023/06/11 01:51:33;;;;;;;4.97;4.47;;;18.00;99.90;;;;;;5016974;28;20036;-69
2023/06/11 01:53:59;;;;;;;5.35;4.88;;;18.00;99.90;;;;;;5015155;28;20096;-69
2023/06/11 01:56:26;;;;;;;6.45;4.97;;;17.90;99.90;;;;;;5010519;28;20563;-68
2023/06/11 01:58:52;;;;;;;5.78;5.10;;;17.90;99.90;;;;;;5012536;28;20485;-68
2023/06/11 02:01:20;;;;;;;5.25;4.75;;;17.90;99.90;;;;;;5017024;28;20151;-68
2023/06/11 02:03:45;;;;;;;8.80;4.75;;;17.80;99.90;;;;;;5016720;28;20073;-68
2023/06/11 02:06:11;;;;;;;5.25;4.78;;;17.80;99.90;;;;;;5017356;28;20479;-65
2023/06/11 02:08:37;;;;;;;5.20;4.80;;;17.80;99.90;;;;;;5016588;28;20041;-69
2023/06/11 02:11:03;;;;;;;6.82;4.60;;;17.80;99.90;;;;;;4992289;28;20048;-68
2023/06/11 02:13:30;;;;;;;5.72;4.90;;;17.80;99.90;;;;;;5011839;28;20041;-69
2023/06/11 02:15:58;;;;;;;4.90;4.43;;;17.80;99.90;;;;;;5009887;28;20038;-68
2023/06/11 02:18:24;;;;;;;5.20;4.70;;;17.80;99.90;;;;;;5004499;28;20033;-69
2023/06/11 02:20:49;;;;;;;6.30;4.97;;;17.70;99.90;;;;;;5015975;28;20029;-69
2023/06/11 02:23:16;;;;;;;6.15;5.13;;;17.70;99.90;;;;;;5012336;28;20030;-68
2023/06/11 02:25:42;;;;;;;5.25;4.78;;;17.70;99.90;;;;;;5013533;28;20069;-69
2023/06/11 02:28:07;;;;;;;5.57;4.72;;;17.60;99.90;;;;;;5009470;28;20056;-69
2023/06/11 02:30:33;;;;;;;8.73;4.65;;;17.70;99.90;;;;;;5003798;28;20090;-69
2023/06/11 02:32:58;;;;;;;6.60;4.70;;;17.70;99.90;;;;;;4993301;28;20474;-69
2023/06/11 02:35:24;;;;;;;4.90;4.50;;;17.70;99.90;;;;;;5006260;28;20062;-69
2023/06/11 02:37:50;;;;;;;4.93;4.40;;;17.70;99.90;;;;;;5011756;28;20120;-69
2023/06/11 02:40:15;;;;;;;8.63;5.40;;;17.70;99.90;;;;;;5020139;28;20041;-69
2023/06/11 02:42:41;;;;;;;13.10;4.43;;;17.70;99.90;;;;;;5007594;28;20038;-68
2023/06/11 02:45:07;;;;;;;6.20;5.45;;;17.60;99.90;;;;;;5010726;28;20112;-69
2023/06/11 02:47:32;;;;;;;5.60;4.63;;;17.60;99.90;;;;;;5010568;28;20106;-69
2023/06/11 02:49:58;;;;;;;5.50;4.88;;;17.60;99.90;;;;;;5010413;28;20077;-69
2023/06/11 02:52:24;;;;;;;6.70;4.60;;;17.60;99.90;;;;;;5006809;28;20029;-69
2023/06/11 02:54:50;;;;;;;9.10;4.80;;;17.60;99.90;;;;;;4994529;28;20052;-70
2023/06/11 02:57:16;;;;;;;5.10;4.55;;;17.60;99.90;;;;;;5012834;28;20038;-69
2023/06/11 02:59:42;;;;;;;5.28;4.78;;;17.70;99.90;;;;;;5016455;28;20052;-69
2023/06/11 03:02:07;;;;;;;6.30;4.47;;;17.70;99.90;;;;;;5007430;28;20045;-69
2023/06/11 03:04:33;;;;;;;7.60;4.90;;;17.70;99.90;;;;;;5013120;28;20588;-69
2023/06/11 03:06:58;;;;;;;6.35;4.60;;;17.70;99.90;;;;;;5015018;28;20117;-69
2023/06/11 03:09:24;;;;;;;5.65;4.22;;;17.70;99.90;;;;;;5007445;28;20407;-69
2023/06/11 03:11:51;;;;;;;8.45;4.65;;;17.70;99.90;;;;;;5005558;28;20033;-69
2023/06/11 03:14:17;;;;;;;5.07;4.68;;;17.70;99.90;;;;;;5009315;28;20057;-69
2023/06/11 03:16:42;;;;;;;6.18;4.85;;;17.70;99.90;;;;;;5009835;28;20508;-69
2023/06/11 03:19:08;;;;;;;5.60;4.15;;;17.70;99.90;;;;;;5006503;28;20056;-69
2023/06/11 03:21:35;;;;;;;5.90;4.10;;;17.70;99.90;;;;;;5005870;28;20033;-64
2023/06/11 03:24:00;;;;;;;4.78;4.35;;;17.70;99.90;;;;;;5004616;28;20462;-64
2023/06/11 03:26:27;;;;;;;5.75;4.47;;;17.80;99.90;;;;;;5005921;28;20711;-64
2023/06/11 03:28:53;;;;;;;5.90;4.55;;;17.80;99.90;;;;;;5006104;28;20092;-64
2023/06/11 03:31:19;;;;;;;4.63;4.30;;;17.80;99.90;;;;;;4999125;28;20059;-64
2023/06/11 03:33:44;;;;;;;4.97;4.50;;;17.90;99.90;;;;;;5007869;28;20599;-64
2023/06/11 03:36:10;;;;;;;6.13;4.38;;;17.90;99.90;;;;;;5006772;28;20525;-64
2023/06/11 03:38:36;;;;;;;5.15;4.45;;;17.90;99.90;;;;;;5010369;28;20045;-64
2023/06/11 03:41:01;;;;;;;5.00;4.50;;;18.00;99.90;;;;;;5014928;28;20040;-69
2023/06/11 03:43:27;;;;;;;4.95;4.50;;;18.00;99.90;;;;;;5014798;28;20476;-69
2023/06/11 03:45:52;;;;;;;5.57;4.40;;;18.10;99.90;;;;;;5011470;28;20044;-68
2023/06/11 03:48:18;;;;;;;6.47;4.38;;;18.10;99.90;;;;;;5008929;28;20045;-69
2023/06/11 03:50:44;;;;;;;5.70;4.10;;;18.20;99.90;;;;;;5015717;28;20033;-69
2023/06/11 03:53:09;;;;;;;4.90;4.50;;;18.20;99.90;;;;;;5011876;28;20038;-69
2023/06/11 03:55:35;;;;;;;5.68;4.53;;;18.30;99.90;;;;;;5015816;28;20835;-68
2023/06/11 03:58:01;;;;;;;5.05;4.60;;;18.30;99.90;;;;;;5014972;28;20038;-64
2023/06/11 04:00:30;;;;;;;5.22;4.18;;;18.30;99.90;;;;;;5011784;28;20505;-64
2023/06/11 04:02:56;;;;;;;4.90;4.15;;;18.20;99.90;;;;;;5008711;28;20030;-64
2023/06/11 04:05:22;;;;;;;4.53;4.13;;;18.30;99.90;;;;;;4991620;28;20048;-64
2023/06/11 04:07:47;;;;;;;4.53;4.10;;;18.30;99.90;;;;;;5004478;28;20049;-64
2023/06/11 04:10:14;;;;;;;6.15;4.00;;;18.40;99.90;;;;;;5016601;28;20091;-64
2023/06/11 04:12:40;;;;;;;4.40;4.00;;;18.40;99.90;;;;;;5013203;28;20120;-64
2023/06/11 04:15:06;;;;;;;4.70;4.30;;;18.50;99.90;;;;;;5012574;28;20037;-69
2023/06/11 04:17:32;;;;;;;7.00;4.30;;;18.50;99.90;;;;;;5010741;28;20033;-64
2023/06/11 04:19:57;;;;;;;6.28;3.72;;;18.60;99.90;;;;;;5013125;28;20034;-64
2023/06/11 04:22:23;;;;;;;4.15;3.85;;;18.70;99.90;;;;;;5015371;28;20104;-64
2023/06/11 04:24:48;;;;;;;4.32;3.75;;;18.70;99.90;;;;;;5007173;28;20054;-64
2023/06/11 04:27:14;;;;;;;4.20;3.80;;;18.80;99.90;;;;;;5006941;28;20672;-64
2023/06/11 04:29:40;;;;;;;5.65;3.42;;;18.90;99.90;;;;;;5012999;28;20052;-64
2023/06/11 04:32:06;;;;;;;5.45;4.10;;;18.90;99.90;;;;;;5007529;28;20519;-64
2023/06/11 04:34:35;;;;;;;4.50;4.10;;;18.90;99.90;;;;;;5008913;28;21970;-64
2023/06/11 04:37:00;;;;;;;4.55;3.40;;;18.90;99.90;;;;;;5011284;28;20032;-64
2023/06/11 04:39:26;;;;;;;6.13;3.58;;;19.00;99.90;;;;;;5016943;28;20038;-64
2023/06/11 04:41:52;;;;;;;4.97;3.53;;;19.00;99.90;;;;;;5014982;28;20109;-64
2023/06/11 04:44:20;;;;;;;5.60;3.75;;;19.00;99.90;;;;;;5012915;28;20029;-64
2023/06/11 04:46:47;;;;;;;3.67;3.38;;;18.90;99.90;;;;;;5009094;28;20056;-65
2023/06/11 04:49:20;;;;;;;4.15;3.60;;;18.90;99.90;;;;;;5019144;28;20139;-64
2023/06/11 04:51:48;;;;;;;4.13;3.55;;;19.00;99.90;;;;;;5004249;28;20319;-65
2023/06/11 04:54:13;;;;;;;4.15;3.50;;;19.00;99.90;;;;;;5016355;28;20063;-64
2023/06/11 04:56:39;;;;;;;4.50;3.70;;;19.00;99.90;;;;;;5015994;28;20117;-65
2023/06/11 04:59:06;;;;;;;3.65;3.30;;;19.00;99.90;;;;;;5013954;28;20048;-64
2023/06/11 05:01:32;;;;;;;4.75;3.78;;;19.10;99.90;;;;;;5008638;28;20093;-64
2023/06/11 05:03:58;;;;;;;3.90;3.60;;;19.20;99.90;;;;;;5013621;28;20675;-65
2023/06/11 05:06:24;;;;;;;4.22;3.40;;;19.30;99.90;;;;;;5015087;28;20058;-64
2023/06/11 05:08:52;;;;;;;3.70;3.40;;;19.30;99.90;;;;;;5013958;28;20038;-64
2023/06/11 05:11:17;;;;;;;3.80;3.42;;;19.30;99.90;;;;;;5003068;28;20057;-66
2023/06/11 05:13:43;;;;;;;3.75;3.42;;;19.40;99.90;;;;;;5003765;28;20519;-65
2023/06/11 05:16:09;;;;;;;4.45;3.38;;;19.50;99.90;;;;;;5014108;28;20134;-64
2023/06/11 05:18:35;;;;;;;5.20;3.80;;;19.60;99.90;;;;;;5013437;28;20044;-65
2023/06/11 05:21:01;;;;;;;5.03;3.45;;;19.60;99.90;;;;;;5003174;28;20038;-64
2023/06/11 05:23:29;;;;;;;3.72;3.42;;;19.70;99.90;;;;;;5010995;28;20120;-64
2023/06/11 05:26:01;;;;;;;3.33;3.13;;;19.70;99.90;;;;;;5013938;28;20105;-64
2023/06/11 05:28:27;;;;;;;;;;;19.80;99.90;;;;;;5016828;28;20053;-64
2023/06/11 05:30:53;;;;;;;3.83;3.47;;;19.80;99.90;;;;;;5009168;28;19968;-64
2023/06/11 05:33:20;;;;;;;3.53;3.20;;;19.90;99.90;;;;;;5013526;28;20137;-64
2023/06/11 05:35:47;;;;;;;3.65;3.22;;;20.00;99.90;;;;;;5013626;28;20061;-64
2023/06/11 05:38:12;;;;;;;5.57;3.40;;;20.00;99.90;;;;;;5006483;28;20034;-64
2023/06/11 05:40:38;;;;;;;5.03;2.78;;;20.00;99.90;;;;;;5007449;28;20068;-64
2023/06/11 05:43:04;;;;;;;4.57;3.30;;;20.10;99.90;;;;;;5010566;28;20128;-64
2023/06/11 05:45:30;;;;;;;5.63;3.65;;;20.10;99.90;;;;;;5010717;28;20060;-65
2023/06/11 05:47:56;;;;;;;5.93;3.13;;;20.10;99.90;;;;;;4994257;28;20049;-65
2023/06/11 05:50:22;;;;;;;3.88;3.55;;;20.20;99.90;;;;;;4993910;28;20056;-64
2023/06/11 05:52:48;;;;;;;3.20;2.72;;;20.20;99.90;;;;;;5019156;28;20041;-64
2023/06/11 05:55:14;;;;;;;4.95;3.38;;;20.20;99.90;;;;;;5016902;28;20464;-64
2023/06/11 05:57:39;;;;;;;5.05;3.28;;;20.30;99.90;;;;;;5015011;28;20029;-64
2023/06/11 06:00:07;;;;;;;4.40;4.00;;;20.30;99.90;;;;;;5015850;28;20026;-64
2023/06/11 06:02:32;;;;;;;7.25;3.25;;;20.30;99.90;;;;;;5014892;28;20047;-64
2023/06/11 06:04:58;;;;;;;4.50;3.25;;;20.30;99.90;;;;;;5016701;28;20421;-68
2023/06/11 06:07:24;;;;;;;3.35;2.92;;;20.20;99.90;;;;;;5021134;28;20567;-69
2023/06/11 06:09:49;;;;;;;4.68;3.35;;;20.30;99.90;;;;;;5016839;28;20057;-68
2023/06/11 06:12:16;;;;;;;4.97;2.92;;;20.40;99.90;;;;;;5013003;28;20104;-68
2023/06/11 06:14:41;;;;;;;4.10;3.25;;;20.40;99.90;;;;;;5006889;28;20060;-68
2023/06/11 06:17:07;;;;;;;3.55;2.95;;;20.40;99.90;;;;;;5007144;28;20497;-68
2023/06/11 06:19:33;;;;;;;3.55;3.10;;;20.50;99.90;;;;;;5014974;28;20394;-68
2023/06/11 06:21:58;;;;;;;3.85;3.03;;;20.60;99.90;;;;;;5019566;28;20819;-69
2023/06/11 06:24:24;;;;;;;3.60;3.20;;;20.70;99.90;;;;;;5015289;28;20044;-68
2023/06/11 06:26:51;;;;;;;4.68;3.25;;;20.80;99.90;;;;;;5011033;28;20175;-68
2023/06/11 06:29:17;;;;;;;3.58;3.28;;;20.90;99.90;;;;;;5010695;28;20049;-68
2023/06/11 06:31:43;;;;;;;5.03;3.28;;;20.70;99.90;;;;;;5002968;28;20513;-69
2023/06/11 06:34:09;;;;;;;3.38;3.08;;;20.70;99.90;;;;;;5001969;28;20056;-67
2023/06/11 06:36:38;;;;;;;3.28;2.97;;;20.70;99.90;;;;;;5004408;28;20040;-68
2023/06/11 06:39:04;;;;;;;3.35;3.05;;;20.70;99.90;;;;;;5018626;28;20042;-69
2023/06/11 06:41:30;;;;;;;3.45;2.88;;;20.80;99.90;;;;;;5002296;28;20153;-69
2023/06/11 06:43:56;;;;;;;4.25;2.83;;;20.90;99.90;;;;;;5016989;28;20041;-69
2023/06/11 06:46:21;;;;;;;3.70;3.15;;;21.00;99.90;;;;;;5016386;28;20044;-67
2023/06/11 06:48:47;;;;;;;4.10;2.72;;;21.00;99.90;;;;;;5016549;28;20059;-69
2023/06/11 06:51:13;;;;;;;3.45;2.65;;;21.00;99.90;;;;;;5009491;28;20068;-69
2023/06/11 06:53:39;;;;;;;3.60;3.00;;;21.20;99.90;;;;;;5016035;28;20045;-68
2023/06/11 06:56:05;;;;;;;3.10;2.70;;;21.30;99.90;;;;;;5014593;28;20736;-69
2023/06/11 06:58:34;;;;;;;3.78;3.40;;;21.50;99.90;;;;;;5012442;28;20068;-69
2023/06/11 07:01:00;;;;;;;4.05;2.92;;;21.50;99.90;;;;;;5014340;28;20127;-69
2023/06/11 07:03:26;;;;;;;3.22;2.95;;;21.50;99.90;;;;;;5009313;28;20065;-65
2023/06/11 07:05:51;;;;;;;3.08;2.75;;;21.60;99.90;;;;;;5009949;28;20037;-64
2023/06/11 07:08:17;;;;;;;3.13;2.90;;;21.60;99.90;;;;;;5014051;28;20038;-64
2023/06/11 07:10:53;;;;;;;3.83;3.33;;;21.70;99.90;;;;;;5015786;28;20037;-64
2023/06/11 07:13:20;;;;;;;6.03;3.65;;;21.90;99.90;;;;;;4997640;28;20573;-62
2023/06/11 07:15:45;;;;;;;5.15;2.80;;;21.90;99.90;;;;;;5006723;28;20041;-62
2023/06/11 07:18:12;;;;;;;4.30;2.45;;;21.90;99.90;;;;;;4995447;28;20077;-62
2023/06/11 07:20:38;;;;;;;3.38;2.53;;;21.90;99.90;;;;;;4991750;28;20478;-69
2023/06/11 07:23:04;;;;;;;3.03;2.83;;;21.80;99.90;;;;;;4997468;28;20072;-68
2023/06/11 07:25:31;;;;;;;3.10;2.80;;;21.70;99.90;;;;;;5002372;28;21193;-69
2023/06/11 07:28:01;;;;;;;2.97;2.67;;;21.70;99.90;;;;;;5014676;28;20038;-70
2023/06/11 07:30:30;;;;;;;3.20;3.00;;;21.90;99.90;;;;;;5007690;28;20045;-68
2023/06/11 07:32:56;;;;;;;3.90;2.65;;;22.00;99.90;;;;;;5011189;28;20042;-65
2023/06/11 07:35:23;;;;;;;4.95;2.78;;;22.10;99.90;;;;;;4985355;28;20041;-65
2023/06/11 07:37:49;;;;;;;3.38;2.70;;;22.20;99.90;;;;;;5004884;28;20049;-65
2023/06/11 07:40:15;;;;;;;2.65;2.45;;;22.40;99.90;;;;;;5002685;28;21335;-65
2023/06/11 07:42:45;;;;;;;4.13;2.70;;;22.40;99.90;;;;;;4976956;28;20159;-65
2023/06/11 07:45:11;;;;;;;5.20;2.90;;;22.40;99.90;;;;;;5010833;28;20021;-66
2023/06/11 07:47:37;;;;;;;3.20;2.60;;;22.50;99.90;;;;;;5014715;28;20087;-64
2023/06/11 07:50:04;;;;;;;3.15;2.50;;;22.60;99.90;;;;;;5000885;28;20145;-65
2023/06/11 07:52:30;;;;;;;4.78;2.70;;;22.60;99.90;;;;;;5007915;28;20524;-65
2023/06/11 07:54:56;;;;;;;3.25;2.60;;;22.70;99.90;;;;;;5003729;28;20040;-64
2023/06/11 07:57:22;;;;;;;4.32;2.60;;;22.70;99.90;;;;;;5004205;28;20495;-64
2023/06/11 07:59:47;;;;;;;2.95;2.75;;;22.70;99.90;;;;;;5002500;28;20116;-65
2023/06/11 08:02:14;;;;;;;4.95;2.92;;;22.70;99.90;;;;;;5007524;28;20042;-64
2023/06/11 08:04:40;;;;;;;2.72;2.53;;;22.60;99.90;;;;;;5002017;28;20402;-64
2023/06/11 08:07:06;;;;;;;3.38;2.80;;;22.60;99.90;;;;;;5002857;28;20022;-64
2023/06/11 08:09:36;;;;;;;2.95;2.75;;;22.60;99.90;;;;;;4981802;28;20812;-65
2023/06/11 08:12:06;;;;;;;6.30;2.88;;;22.60;99.90;;;;;;4989332;28;20576;-64
2023/06/11 08:14:33;;;;;;;2.83;2.63;;;22.40;99.90;;;;;;5004524;28;20053;-64
2023/06/11 08:16:59;;;;;;;4.55;3.13;;;22.30;99.90;;;;;;4999966;28;20061;-64
2023/06/11 08:19:25;;;;;;;2.83;2.63;;;22.40;99.90;;;;;;5004066;28;20049;-70
2023/06/11 08:21:50;;;;;;;3.10;2.50;;;22.40;99.90;;;;;;4983059;28;20749;-70
2023/06/11 08:24:21;;;;;;;3.90;2.42;;;22.40;99.90;;;;;;4979497;28;20385;-70
2023/06/11 08:26:48;;;;;;;2.13;2.03;;;22.40;99.90;;;;;;5007286;28;20363;-72
2023/06/11 08:29:14;;;;;;;2.30;2.20;;;22.50;99.90;;;;;;5004550;28;20033;-69
2023/06/11 08:31:40;;;;;;;3.17;2.25;;;22.40;99.90;;;;;;5005109;28;20045;-72
2023/06/11 08:34:05;;;;;;;4.95;2.80;;;22.40;99.90;;;;;;5012280;28;20293;-60
2023/06/11 08:36:31;;;;;;;4.07;2.28;;;22.30;99.90;;;;;;5006018;28;20039;-61
2023/06/11 08:38:57;;;;;;;4.35;2.35;;;22.20;99.90;;;;;;4997713;28;20128;-59
2023/06/11 08:41:23;;;;;;;5.18;2.20;;;22.20;99.90;;;;;;4999052;28;20105;-60
2023/06/11 08:43:49;;;;;;;2.60;2.40;;;22.10;99.90;;;;;;5000694;28;20034;-60
2023/06/11 08:46:15;;;;;;;3.42;2.60;;;22.20;99.90;;;;;;5000665;28;20070;-60
2023/06/11 08:48:42;;;;;;;2.50;2.30;;;22.20;99.90;;;;;;5002122;28;20088;-60
2023/06/11 08:51:12;;;;;;;2.67;2.28;;;22.20;99.90;;;;;;5003685;28;20038;-60
2023/06/11 08:53:39;;;;;;;2.65;2.45;;;22.10;99.90;;;;;;5007109;28;20294;-60
2023/06/11 08:56:08;;;;;;;2.33;2.22;;;22.10;99.90;;;;;;5000094;28;20029;-59
2023/06/11 08:58:35;;;;;;;5.68;2.38;;;22.20;99.90;;;;;;5007196;28;20063;-60
2023/06/11 09:01:10;;;;;;;4.95;2.10;;;22.30;99.90;;;;;;4994569;28;20037;-60
2023/06/11 09:03:37;;;;;;;3.20;2.50;;;22.30;99.90;;;;;;4983244;28;20045;-61
2023/06/11 09:06:03;;;;;;;8.35;2.95;;;22.30;99.90;;;;;;4995006;28;20034;-61
2023/06/11 09:08:29;;;;;;;2.42;2.20;;;22.30;99.90;;;;;;5002430;28;20148;-61
2023/06/11 09:10:55;;;;;;;4.10;2.60;;;22.40;99.90;;;;;;5012657;28;20124;-79
2023/06/11 09:13:25;;;;;;;5.05;2.40;;;22.40;99.90;;;;;;5004045;28;20743;-76
2023/06/11 09:15:52;;;;;;;2.72;2.53;;;22.40;99.90;;;;;;4991318;28;20090;-78
2023/06/11 09:18:23;;;;;;;2.55;2.35;;;22.50;99.90;;;;;;5010256;28;20033;-76
2023/06/11 09:20:54;;;;;;;2.67;1.98;;;22.60;99.90;;;;;;5012637;28;20762;-75
2023/06/11 09:23:34;;;;;;;3.33;2.20;;;22.50;99.90;;;;;;5014240;28;20190;-75
2023/06/11 09:26:00;;;;;;;3.33;2.38;;;22.50;99.90;;;;;;5011321;28;20175;-77
2023/06/11 09:28:36;;;;;;;2.15;2.05;;;22.50;99.90;;;;;;5006658;28;20045;-76
2023/06/11 09:31:04;;;;;;;2.40;2.20;;;22.40;99.90;;;;;;5011219;28;20034;-62
2023/06/11 09:33:31;;;;;;;1.92;1.83;;;22.40;99.90;;;;;;4996252;28;20045;-61
2023/06/11 09:35:57;;;;;;;2.20;2.00;;;22.50;99.90;;;;;;5017820;28;20530;-61
2023/06/11 09:38:23;;;;;;;2.25;2.15;;;22.60;99.90;;;;;;5015672;28;20138;-62
2023/06/11 09:40:55;;;;;;;4.10;2.10;;;22.70;99.90;;;;;;5016753;28;20036;-62
2023/06/11 09:43:23;;;;;;;2.30;2.10;;;22.90;99.90;;;;;;5014946;28;20053;-62
2023/06/11 09:45:52;;;;;;;2.13;2.03;;;22.90;99.90;;;;;;5011962;28;20750;-61
2023/06/11 09:48:19;;;;;;;5.75;3.15;;;23.00;99.90;;;;;;5011206;28;20049;-62
2023/06/11 09:50:46;;;;;;;2.38;2.00;;;23.10;99.90;;;;;;5019914;28;20073;-61
2023/06/11 09:53:13;;;;;;;3.92;1.88;;;23.20;99.90;;;;;;5019052;28;20040;-61
2023/06/11 09:55:40;;;;;;;2.40;2.00;;;23.20;99.90;;;;;;5016126;28;20176;-61
2023/06/11 09:58:06;;;;;;;2.92;1.88;;;23.20;99.90;;;;;;5014090;28;20578;-61
2023/06/11 10:00:34;;;;;;;2.28;1.60;;;23.20;99.90;;;;;;5014391;28;20864;-62
2023/06/11 10:03:00;;;;;;;1.58;1.48;;;23.30;99.90;;;;;;5009829;28;20347;-62
2023/06/11 10:05:27;;;;;;;1.38;1.27;;;23.40;99.90;;;;;;5010324;28;20517;-61
2023/06/11 10:08:08;;;;;;;1.95;1.40;;;23.50;99.90;;;;;;5010611;28;20041;-62
2023/06/11 10:10:40;;;;;;;2.33;1.30;;;23.50;99.90;;;;;;5013492;28;20049;-62
2023/06/11 10:13:06;;;;;;;3.72;1.33;;;23.60;99.90;;;;;;5017932;28;20560;-63
2023/06/11 10:15:35;;;;;;;0.90;0.90;;;23.50;99.90;;;;;;4998571;28;20041;-62
2023/06/11 10:18:01;;;;;;;1.17;1.08;;;23.40;99.90;;;;;;5017418;28;20128;-62
2023/06/11 10:20:29;;;;;;;0.98;0.98;;;23.50;99.90;;;;;;5013050;28;20064;-62
2023/06/11 10:23:11;;;;;;;1.92;0.70;;;23.70;99.90;;;;;;5012789;28;20029;-62
2023/06/11 10:25:39;;;;;;;1.38;0.65;;;23.90;99.90;;;;;;5013421;28;20045;-62
2023/06/11 10:28:06;;;;;;;2.15;0.90;;;24.00;99.90;;;;;;5014159;28;20056;-62
2023/06/11 10:30:33;;;;;;;0.80;0.80;;;24.10;99.90;;;;;;4994342;28;20528;-63
2023/06/11 10:32:59;;;;;;;0.80;0.60;;;24.00;99.90;;;;;;4988470;28;20041;-62
2023/06/11 10:35:36;;;;;;;2.65;0.77;;;23.90;99.90;;;;;;5002497;28;20044;-64
2023/06/11 10:38:04;;;;;;;0.70;0.70;;;23.80;99.90;;;;;;5013382;28;20049;-62
2023/06/11 10:40:35;;;;;;;2.50;0.70;;;23.80;99.90;;;;;;4996886;28;20080;-63
2023/06/11 10:43:04;;;;;;;3.92;0.75;;;23.80;99.90;;;;;;5003799;28;20124;-84
2023/06/11 10:45:37;;;;;;;1.10;0.60;;;23.70;99.90;;;;;;5016097;28;20034;-79
2023/06/11 10:48:03;;;;;;;0.45;0.45;;;23.70;99.90;;;;;;5013331;28;20458;-81
2023/06/11 10:50:32;;;;;;;2.22;0.55;;;23.80;99.90;;;;;;5010221;28;20049;-78
2023/06/11 10:53:03;;;;;;;2.40;0.90;;;23.80;99.90;;;;;;4993347;28;20061;-75
2023/06/11 10:55:30;;;;;;;2.42;0.65;;;23.80;99.90;;;;;;5001387;28;20038;-74
2023/06/11 10:58:00;;;;;;;1.00;0.90;;;23.70;99.90;;;;;;5011087;28;20034;-74
2023/06/11 11:00:32;;;;;;;7.10;1.13;;;23.80;99.90;;;;;;5012560;28;20040;-82
2023/06/11 11:03:03;;;;;;;11.10;2.40;;;24.00;99.90;;;;;;5005599;28;20041;-83
2023/06/11 11:05:28;;;;;;;2.75;0.85;;;24.10;99.90;;;;;;5000038;28;20116;-86
2023/06/11 11:07:55;;;;;;;2.65;1.00;;;24.20;99.90;;;;;;4997332;28;20044;-75
2023/06/11 11:10:27;;;;;;;1.45;0.73;;;24.40;99.90;;;;;;4995620;28;20085;-75
2023/06/11 11:12:54;;;;;;;8.95;1.50;;;24.30;99.90;;;;;;5000403;28;20124;-74
2023/06/11 11:15:20;;;;;;;1.40;1.00;;;24.30;99.90;;;;;;5010047;28;20037;-74
2023/06/11 11:17:46;;;;;;;3.60;1.10;;;24.30;99.90;;;;;;5004756;28;20040;-74
2023/06/11 11:20:15;;;;;;;2.10;0.90;;;24.30;99.90;;;;;;5009896;28;20628;-63
2023/06/11 11:22:40;;;;;;;1.60;0.82;;;24.40;99.90;;;;;;5004100;28;20037;-62
2023/06/11 11:25:07;;;;;;;0.55;0.55;;;24.40;99.90;;;;;;5007870;28;20501;-62
2023/06/11 11:27:34;;;;;;;2.13;0.70;;;24.50;99.90;;;;;;5007520;28;20501;-66
2023/06/11 11:30:02;;;;;;;1.55;1.15;;;24.30;99.90;;;;;;5007989;28;20127;-65
2023/06/11 11:32:32;;;;;;;0.88;0.70;;;24.10;99.90;;;;;;5001616;28;20077;-66
2023/06/11 11:34:59;;;;;;;0.93;0.60;;;24.00;99.90;;;;;;5011678;28;20056;-65
2023/06/11 11:37:28;;;;;;;3.92;0.70;;;24.00;99.90;;;;;;5017695;28;20634;-66
2023/06/11 11:39:54;;;;;;;0.60;0.60;;;24.00;99.90;;;;;;5013021;28;20477;-66
2023/06/11 11:42:22;;;;;;;1.02;0.70;;;24.00;99.90;;;;;;5018156;28;20780;-65
2023/06/11 11:44:53;;;;;;;1.65;0.40;;;23.90;99.90;;;;;;5010648;28;20049;-66
2023/06/11 11:47:21;;;;;;;1.80;1.10;;;23.90;99.90;;;;;;5005978;28;20038;-66
2023/06/11 11:49:56;;;;;;;0.70;0.70;;;23.90;99.90;;;;;;5007278;28;20048;-65
2023/06/11 11:52:23;;;;;;;0.50;0.50;;;24.00;99.90;;;;;;5013427;28;20037;-67
2023/06/11 11:54:49;;;;;;;1.10;0.50;;;24.10;99.90;;;;;;5013989;28;20091;-66
2023/06/11 11:57:21;;;;;;;0.50;0.50;;;24.00;99.90;;;;;;5010307;28;20033;-65
2023/06/11 11:59:53;;;;;;;0.63;0.63;;;23.90;99.90;;;;;;5012778;28;20771;-65
2023/06/11 12:02:25;;;;;;;0.88;0.80;;;23.80;99.90;;;;;;4999556;28;20130;-64
2023/06/11 12:04:50;;;;;;;1.02;0.70;;;23.70;99.90;;;;;;4981422;28;20052;-66
2023/06/11 12:07:17;;;;;;;1.13;0.82;;;23.80;99.90;;;;;;5001413;28;20049;-65
2023/06/11 12:09:43;;;;;;;0.70;0.70;;;24.00;99.90;;;;;;4983740;28;21239;-65
2023/06/11 12:12:10;;;;;;;0.70;0.70;;;24.20;99.90;;;;;;5000159;28;20101;-65
2023/06/11 12:14:36;;;;;;;0.60;0.60;;;24.10;99.90;;;;;;4984462;28;20148;-65
2023/06/11 12:17:03;;;;;;;1.75;0.60;;;24.10;99.90;;;;;;5003554;28;20124;-65
2023/06/11 12:19:29;;;;;;;0.77;0.50;;;24.00;99.90;;;;;;5001817;28;20061;-65
2023/06/11 12:21:55;;;;;;;1.63;0.50;;;23.90;99.90;;;;;;4996621;28;20045;-65
2023/06/11 12:24:22;;;;;;;0.85;0.70;;;23.90;99.90;;;;;;4997178;28;20072;-65
2023/06/11 12:26:49;;;;;;;1.58;0.60;;;23.80;99.90;;;;;;4995865;28;20034;-64
2023/06/11 12:29:16;;;;;;;1.08;0.60;;;23.90;99.90;;;;;;4996227;28;20053;-65
2023/06/11 12:31:41;;;;;;;0.88;0.50;;;23.90;99.90;;;;;;5002198;28;20040;-65
2023/06/11 12:34:10;;;;;;;0.60;0.60;;;23.90;99.90;;;;;;5009804;28;20029;-65
2023/06/11 12:36:36;;;;;;;3.53;0.63;;;23.90;99.90;;;;;;4999152;28;24395;-64
2023/06/11 12:39:04;;;;;;;0.85;0.85;;;24.10;99.90;;;;;;4999453;28;20049;-65
2023/06/11 12:41:31;;;;;;;1.80;0.73;;;24.30;99.90;;;;;;5005269;28;20029;-65
2023/06/11 12:43:57;;;;;;;1.83;0.80;;;24.30;99.90;;;;;;5008925;28;20064;-65
2023/06/11 12:46:26;;;;;;;0.77;0.77;;;24.20;99.90;;;;;;4973329;28;20077;-65
2023/06/11 12:48:52;;;;;;;1.95;1.00;;;24.10;99.90;;;;;;5006659;28;20108;-65